Time;durP1;ratioP1;P1;durP2;ratioP2;P2;SDS_P1;SDS_P2;PMS_P1;PMS_P2;Temp;Humidity;BMP_temperature;BMP_pressure;BME280_temperature;BME280_humidity;BME280_pressure;Samples;Min_cycle;Max_cycle;Signal;HPM_P1;HPM_P2
2022/11/02 00:00:46;;;;;;;6.97;2.70;;;7.30;99.90;;;;;;5004630;28;20425;-86
2022/11/02 00:03:18;;;;;;;2.83;2.53;;;7.20;99.90;;;;;;4991798;28;20030;-86
2022/11/02 00:05:44;;;;;;;3.83;2.72;;;7.10;99.90;;;;;;5010643;28;20034;-86
2022/11/02 00:08:19;;;;;;;2.60;2.40;;;7.10;99.90;;;;;;5016629;28;20767;-86
2022/11/02 00:10:45;;;;;;;2.50;2.30;;;7.00;99.90;;;;;;5012707;28;20095;-87
2022/11/02 00:13:11;;;;;;;3.10;2.60;;;7.00;99.90;;;;;;5017645;28;20101;-86
2022/11/02 00:16:13;;;;;;;2.50;2.30;;;7.10;99.90;;;;;;4998800;28;20046;-85
2022/11/02 00:18:56;;;;;;;3.00;2.72;;;7.20;99.90;;;;;;5009493;28;20046;-86
2022/11/02 00:21:25;;;;;;;4.47;2.92;;;7.30;99.90;;;;;;5011372;28;20036;-86
2022/11/02 00:24:01;;;;;;;16.85;5.65;;;7.20;99.90;;;;;;5021300;28;20030;-86
2022/11/02 00:26:28;;;;;;;10.15;3.33;;;7.20;99.90;;;;;;5013361;28;20034;-86
2022/11/02 00:28:54;;;;;;;6.82;4.43;;;7.20;99.90;;;;;;5015714;28;20030;-86
2022/11/02 00:31:26;;;;;;;20.38;4.43;;;6.90;99.90;;;;;;5015899;28;20075;-86
2022/11/02 00:33:52;;;;;;;2.80;2.03;;;6.50;99.90;;;;;;5015937;28;20514;-86
2022/11/02 00:36:18;;;;;;;14.32;2.92;;;6.20;99.90;;;;;;4994692;28;20064;-85
2022/11/02 00:38:44;;;;;;;17.58;3.38;;;6.00;99.90;;;;;;5008967;28;20026;-86
2022/11/02 00:41:11;;;;;;;5.07;3.45;;;6.00;99.90;;;;;;5017461;28;20052;-86
2022/11/02 00:43:37;;;;;;;3.25;2.70;;;6.10;99.90;;;;;;5016648;28;20053;-86
2022/11/02 00:46:06;;;;;;;6.32;3.35;;;6.10;99.90;;;;;;4997706;28;20030;-86
2022/11/02 00:48:32;;;;;;;2.78;2.05;;;6.10;99.90;;;;;;4979634;28;20030;-86
2022/11/02 00:51:01;;;;;;;6.20;3.30;;;6.10;99.90;;;;;;4997337;28;20030;-87
2022/11/02 00:53:27;;;;;;;4.15;3.00;;;6.20;99.90;;;;;;4991532;28;20070;-86
2022/11/02 00:55:56;;;;;;;5.07;3.47;;;6.30;99.90;;;;;;4999915;28;20034;-86
2022/11/02 00:58:23;;;;;;;4.15;3.45;;;6.40;99.90;;;;;;5001509;28;20546;-87
2022/11/02 01:00:49;;;;;;;5.32;2.88;;;6.60;99.90;;;;;;4998510;28;20030;-86
2022/11/02 01:03:14;;;;;;;4.00;2.80;;;6.60;99.90;;;;;;5002348;28;20093;-86
2022/11/02 01:05:41;;;;;;;2.63;2.35;;;6.70;99.90;;;;;;4994442;28;20039;-87
2022/11/02 01:08:17;;;;;;;5.07;2.90;;;6.80;99.90;;;;;;4994679;28;20034;-87
2022/11/02 01:10:46;;;;;;;4.05;2.53;;;6.80;99.90;;;;;;4997885;28;20092;-87
2022/11/02 01:13:21;;;;;;;3.35;2.65;;;6.80;99.90;;;;;;4991806;28;20034;-87
2022/11/02 01:15:47;;;;;;;2.63;2.30;;;6.80;99.90;;;;;;4996409;28;20046;-86
2022/11/02 01:18:13;;;;;;;3.70;2.42;;;6.80;99.90;;;;;;4990225;28;20027;-87
2022/11/02 01:20:42;;;;;;;2.97;2.47;;;6.70;99.90;;;;;;4998307;28;21675;-86
2022/11/02 01:23:08;;;;;;;2.83;2.38;;;6.70;99.90;;;;;;4996777;28;20034;-86
2022/11/02 01:25:34;;;;;;;5.05;2.35;;;6.70;99.90;;;;;;4995790;28;20042;-87
2022/11/02 01:28:21;;;;;;;7.43;2.90;;;6.60;99.90;;;;;;4997311;28;20056;-86
2022/11/02 01:30:47;;;;;;;4.75;2.67;;;6.80;99.90;;;;;;4992571;28;20045;-86
2022/11/02 01:33:13;;;;;;;3.50;2.63;;;6.80;99.90;;;;;;4997744;28;20043;-87
2022/11/02 01:35:40;;;;;;;5.07;3.10;;;6.80;99.90;;;;;;5016336;28;20034;-87
2022/11/02 01:38:15;;;;;;;4.85;2.83;;;6.80;99.90;;;;;;5001373;28;20093;-86
2022/11/02 01:40:40;;;;;;;4.70;3.10;;;6.90;99.90;;;;;;5002899;28;20074;-87
2022/11/02 01:43:43;;;;;;;4.93;3.25;;;6.90;99.90;;;;;;4999627;28;20045;-87
2022/11/02 01:46:21;;;;;;;5.47;3.30;;;7.00;99.90;;;;;;4989013;28;20062;-86
2022/11/02 01:49:12;;;;;;;4.85;3.20;;;6.90;99.90;;;;;;5000094;28;20035;-88
2022/11/02 01:51:47;;;;;;;4.32;3.20;;;7.00;99.90;;;;;;4999786;28;20035;-88
2022/11/02 01:54:25;;;;;;;3.53;3.20;;;7.00;99.90;;;;;;5000216;28;20058;-87
2022/11/02 01:57:24;;;;;;;3.77;3.43;;;7.00;99.90;;;;;;4996141;28;20041;-88
2022/11/02 02:00:13;;;;;;;3.72;2.67;;;7.10;99.90;;;;;;4994789;28;20281;-87
2022/11/02 02:02:43;;;;;;;;;;;7.00;99.90;;;;;;4994261;28;20116;-87
2022/11/02 02:05:16;;;;;;;7.00;3.30;;;6.90;99.90;;;;;;4997912;28;19914;-88
2022/11/02 02:07:46;;;;;;;6.70;3.55;;;7.00;99.90;;;;;;4996418;28;20447;-88
2022/11/02 02:10:12;;;;;;;4.05;3.42;;;7.00;99.90;;;;;;4996853;28;20102;-88
2022/11/02 02:12:40;;;;;;;5.72;3.80;;;7.10;99.90;;;;;;4994303;28;20030;-87
2022/11/02 02:15:16;;;;;;;8.23;3.30;;;7.10;99.90;;;;;;4997791;28;20493;-87
2022/11/02 02:17:56;;;;;;;5.80;4.15;;;7.20;99.90;;;;;;4998126;28;20085;-87
2022/11/02 02:20:43;;;;;;;4.28;3.05;;;7.20;99.90;;;;;;4997897;28;20027;-88
2022/11/02 02:23:30;;;;;;;3.95;3.30;;;7.20;99.90;;;;;;4989814;28;20049;-86
2022/11/02 02:26:40;;;;;;;3.50;3.13;;;7.30;99.90;;;;;;4989353;28;20061;-88
2022/11/02 02:29:24;;;;;;;3.90;3.10;;;7.30;99.90;;;;;;4998061;28;20110;-88
2022/11/02 02:32:58;;;;;;;5.10;3.35;;;7.30;99.90;;;;;;4999227;28;20478;-88
2022/11/02 02:35:23;;;;;;;5.32;3.17;;;7.40;99.90;;;;;;4973699;23;20048;-35
2022/11/02 02:38:03;;;;;;;5.25;3.22;;;7.40;99.90;;;;;;4967251;28;20510;-35
2022/11/02 02:43:25;;;;;;;5.55;3.28;;;7.50;99.90;;;;;;4346090;23;20066;-84
2022/11/02 02:45:59;;;;;;;5.13;3.42;;;7.50;99.90;;;;;;4992957;28;20050;-83
2022/11/02 02:48:26;;;;;;;4.53;3.03;;;7.50;99.90;;;;;;4993775;28;22125;-84
2022/11/02 02:51:20;;;;;;;4.18;3.38;;;7.50;99.90;;;;;;4999877;28;20038;-84
2022/11/02 02:53:49;;;;;;;5.35;3.42;;;7.50;99.90;;;;;;4984777;28;20038;-84
2022/11/02 02:56:19;;;;;;;5.40;3.00;;;7.50;99.90;;;;;;4974331;28;20489;-84
2022/11/02 02:59:28;;;;;;;3.60;3.08;;;7.50;99.90;;;;;;4998071;28;20069;-84
2022/11/02 03:01:55;;;;;;;4.15;3.00;;;7.50;99.90;;;;;;4992532;28;20046;-84
2022/11/02 03:04:21;;;;;;;4.97;3.10;;;7.40;99.90;;;;;;4997418;28;20037;-84
2022/11/02 03:06:51;;;;;;;4.30;3.05;;;7.40;99.90;;;;;;4986941;28;20026;-84
2022/11/02 03:09:44;;;;;;;4.93;3.10;;;7.40;99.90;;;;;;4995100;28;20039;-81
2022/11/02 03:12:34;;;;;;;3.95;2.95;;;7.40;99.90;;;;;;4971523;28;20023;-83
2022/11/02 03:15:19;;;;;;;4.20;3.22;;;7.40;99.90;;;;;;4994107;28;20429;-83
2022/11/02 03:17:50;;;;;;;4.03;2.78;;;7.40;99.90;;;;;;4994136;28;20060;-83
2022/11/02 03:20:47;;;;;;;6.57;3.60;;;7.40;99.90;;;;;;4977655;28;20023;-84
2022/11/02 03:23:39;;;;;;;4.78;3.05;;;7.40;99.90;;;;;;4968664;28;20042;-84
2022/11/02 03:26:08;;;;;;;4.47;2.92;;;7.40;99.90;;;;;;4994899;28;20039;-83
2022/11/02 03:29:31;;;;;;;5.03;3.20;;;7.30;99.90;;;;;;5001114;28;20037;-82
2022/11/02 03:32:04;;;;;;;3.30;2.70;;;7.30;99.90;;;;;;4948895;28;20055;-84
2022/11/02 03:34:45;;;;;;;4.63;2.88;;;7.30;99.90;;;;;;4931811;28;20050;-85
2022/11/02 03:37:31;;;;;;;3.40;2.70;;;7.20;99.90;;;;;;4979601;28;20625;-85
2022/11/02 03:53:55;;;;;;;3.33;2.53;;;7.00;99.90;;;;;;3996462;28;20085;-84
2022/11/02 03:56:31;;;;;;;3.80;2.70;;;7.10;99.90;;;;;;4946834;28;20042;-84
2022/11/02 03:58:57;;;;;;;5.85;3.00;;;7.20;99.90;;;;;;4978631;28;20061;-83
2022/11/02 04:01:53;;;;;;;7.82;2.90;;;7.20;99.90;;;;;;4969684;28;20050;-83
2022/11/02 04:04:19;;;;;;;3.10;2.70;;;7.30;99.90;;;;;;4964934;28;20035;-83
2022/11/02 04:06:59;;;;;;;;;;;;;;;;;;;;;
2022/11/02 04:09:25;;;;;;;2.97;2.33;;;7.40;99.90;;;;;;4975079;28;20034;-83
2022/11/02 04:14:38;;;;;;;4.25;2.40;;;7.30;99.90;;;;;;4974747;28;20065;-84
2022/11/02 04:19:52;;;;;;;3.53;2.67;;;7.10;99.90;;;;;;4969417;28;19925;-84
2022/11/02 04:25:19;;;;;;;4.25;2.67;;;7.20;99.90;;;;;;4971576;28;20042;-85
2022/11/02 04:27:48;;;;;;;5.53;2.42;;;7.20;99.90;;;;;;4971216;28;20090;-84
2022/11/02 04:30:16;;;;;;;3.17;2.88;;;6.90;99.90;;;;;;4971109;28;20042;-84
2022/11/02 04:35:32;;;;;;;2.67;2.42;;;6.80;99.90;;;;;;4966447;28;20096;-85
2022/11/02 04:43:43;;;;;;;14.95;2.85;;;6.70;99.90;;;;;;4969075;28;20034;-84
2022/11/02 04:46:08;;;;;;;4.85;2.35;;;6.50;99.90;;;;;;4977158;28;20034;-85
2022/11/02 04:48:34;;;;;;;14.90;2.92;;;6.50;99.90;;;;;;4971923;28;20030;-84
2022/11/02 04:51:00;;;;;;;10.43;2.80;;;6.40;99.90;;;;;;4975331;28;20077;-84
2022/11/02 04:53:26;;;;;;;3.95;2.20;;;6.40;99.90;;;;;;4989552;28;20375;-84
2022/11/02 04:55:52;;;;;;;3.63;2.58;;;6.40;99.90;;;;;;4997936;28;20022;-84
2022/11/02 04:58:17;;;;;;;5.53;2.58;;;6.40;99.90;;;;;;4997973;28;20058;-84
2022/11/02 05:00:43;;;;;;;3.00;2.78;;;6.40;99.90;;;;;;5000084;28;20422;-85
2022/11/02 05:03:41;;;;;;;4.30;2.65;;;6.40;99.90;;;;;;4994326;28;20046;-84
2022/11/02 05:06:09;;;;;;;4.65;2.50;;;6.20;99.90;;;;;;4949637;28;20041;-84
2022/11/02 05:08:35;;;;;;;2.97;2.10;;;6.10;99.90;;;;;;4995104;28;20550;-85
2022/11/02 05:11:01;;;;;;;3.30;2.38;;;6.10;99.90;;;;;;4991887;28;20072;-84
2022/11/02 05:13:28;;;;;;;2.70;2.38;;;5.90;99.90;;;;;;4995028;28;20062;-84
2022/11/02 05:15:58;;;;;;;3.20;2.00;;;5.90;99.90;;;;;;4991921;28;20762;-83
2022/11/02 05:18:28;;;;;;;2.75;2.25;;;5.90;99.90;;;;;;4997170;28;20077;-83
2022/11/02 05:20:56;;;;;;;10.13;3.05;;;5.90;99.90;;;;;;4987725;28;20023;-85
2022/11/02 05:23:23;;;;;;;36.83;4.68;;;5.90;99.90;;;;;;4981055;28;20066;-84
2022/11/02 05:25:57;;;;;;;10.75;2.33;;;5.80;99.90;;;;;;4986739;28;20121;-84
2022/11/02 05:28:24;;;;;;;2.30;2.10;;;5.80;99.90;;;;;;4999361;28;20038;-84
2022/11/02 05:30:50;;;;;;;20.33;3.22;;;5.90;99.90;;;;;;4991497;28;20064;-83
2022/11/02 05:33:16;;;;;;;7.00;2.10;;;5.90;99.90;;;;;;4985315;28;20035;-84
2022/11/02 05:35:43;;;;;;;2.15;1.85;;;6.00;99.90;;;;;;4995270;28;20026;-84
2022/11/02 05:38:08;;;;;;;3.15;2.20;;;6.10;99.90;;;;;;4997357;28;20041;-84
2022/11/02 05:40:55;;;;;;;1.80;1.70;;;6.20;99.90;;;;;;4992507;28;20573;-85
2022/11/02 05:43:23;;;;;;;5.43;2.83;;;6.20;99.90;;;;;;4995520;28;20045;-84
2022/11/02 05:45:58;;;;;;;1.80;1.70;;;6.20;99.90;;;;;;4984687;28;20027;-84
2022/11/02 05:48:26;;;;;;;3.10;2.10;;;6.10;99.90;;;;;;4992712;28;20040;-84
2022/11/02 05:50:56;;;;;;;8.77;3.38;;;6.20;99.90;;;;;;4998803;28;20045;-84
2022/11/02 05:53:23;;;;;;;7.00;3.40;;;6.20;99.90;;;;;;4989168;28;20142;-84
2022/11/02 05:55:49;;;;;;;6.85;2.60;;;6.20;99.90;;;;;;4999970;28;20129;-85
2022/11/02 05:58:15;;;;;;;18.10;2.80;;;6.10;99.90;;;;;;5000099;28;20671;-84
2022/11/02 06:00:40;;;;;;;5.05;2.40;;;6.10;99.90;;;;;;4991481;28;20025;-84
2022/11/02 06:03:06;;;;;;;4.65;2.20;;;6.10;99.90;;;;;;4990520;28;20038;-84
2022/11/02 06:05:32;;;;;;;4.10;2.42;;;6.20;99.90;;;;;;4972940;28;20022;-85
2022/11/02 06:08:02;;;;;;;2.92;1.90;;;6.10;99.90;;;;;;5002109;28;20029;-84
2022/11/02 06:10:29;;;;;;;4.63;2.33;;;6.10;99.90;;;;;;4995351;28;20106;-84
2022/11/02 06:12:56;;;;;;;4.63;1.75;;;6.00;99.90;;;;;;4983647;28;20058;-85
2022/11/02 06:15:23;;;;;;;2.97;2.05;;;5.70;99.90;;;;;;4986992;28;20164;-84
2022/11/02 06:17:50;;;;;;;3.55;2.40;;;5.70;99.90;;;;;;4987913;28;20033;-86
2022/11/02 06:20:16;;;;;;;2.13;1.92;;;5.80;99.90;;;;;;4986118;28;20702;-85
2022/11/02 06:22:42;;;;;;;2.30;1.80;;;5.90;99.90;;;;;;4991401;28;20030;-84
2022/11/02 06:25:09;;;;;;;2.42;1.85;;;5.80;99.90;;;;;;4991651;28;20061;-85
2022/11/02 06:27:35;;;;;;;2.17;1.65;;;5.90;99.90;;;;;;4993033;28;20058;-84
2022/11/02 06:30:02;;;;;;;1.85;1.52;;;6.00;99.90;;;;;;4996642;28;20718;-85
2022/11/02 06:32:28;;;;;;;1.73;1.63;;;6.00;99.90;;;;;;4993901;28;20421;-85
2022/11/02 06:35:06;;;;;;;1.70;1.42;;;6.10;99.90;;;;;;4988594;28;20026;-85
2022/11/02 06:37:33;;;;;;;2.63;2.03;;;6.10;99.90;;;;;;4990093;28;20026;-85
2022/11/02 06:40:18;;;;;;;8.68;7.88;;;6.20;99.90;;;;;;4986202;28;20031;-85
2022/11/02 06:42:43;;;;;;;9.13;5.90;;;6.20;99.90;;;;;;4978453;28;20029;-85
2022/11/02 06:45:12;;;;;;;4.95;4.22;;;6.30;99.90;;;;;;4994685;28;20031;-85
2022/11/02 06:47:38;;;;;;;;;;;6.30;99.90;;;;;;4985358;28;20730;-86
2022/11/02 06:50:05;;;;;;;5.15;3.03;;;6.40;99.90;;;;;;4979287;28;20012;-86
2022/11/02 06:52:31;;;;;;;6.18;5.25;;;6.50;99.90;;;;;;4999874;28;20428;-83
2022/11/02 06:54:57;;;;;;;6.03;5.18;;;6.60;99.90;;;;;;4986081;28;20391;-85
2022/11/02 06:57:25;;;;;;;7.10;4.65;;;6.60;99.90;;;;;;5001550;28;20045;-85
2022/11/02 07:00:04;;;;;;;;;;;;;;;;;;;;;
2022/11/02 07:02:30;;;;;;;6.22;4.85;;;6.80;99.90;;;;;;5003871;28;20137;-86
2022/11/02 07:04:59;;;;;;;4.80;3.80;;;6.90;99.90;;;;;;4994786;28;20125;-86
2022/11/02 07:07:24;;;;;;;5.00;3.60;;;6.90;99.90;;;;;;4985951;28;20056;-82
2022/11/02 07:09:59;;;;;;;5.82;3.50;;;7.00;99.90;;;;;;4987773;28;20034;-84
2022/11/02 07:12:25;;;;;;;4.43;3.67;;;7.10;99.90;;;;;;4989044;28;20405;-85
2022/11/02 07:14:51;;;;;;;20.00;10.77;;;7.10;99.90;;;;;;4992063;28;21846;-84
2022/11/02 07:17:17;;;;;;;19.90;11.23;;;7.20;99.90;;;;;;4983461;28;20034;-84
2022/11/02 07:19:42;;;;;;;16.40;8.38;;;7.30;99.90;;;;;;4994991;28;20138;-84
2022/11/02 07:22:08;;;;;;;11.27;7.00;;;7.40;99.90;;;;;;4987365;28;20044;-86
2022/11/02 07:24:34;;;;;;;8.57;5.80;;;7.40;99.90;;;;;;4990732;28;20042;-82
2022/11/02 07:26:59;;;;;;;19.42;11.10;;;7.50;99.90;;;;;;4991642;28;20028;-84
2022/11/02 07:29:25;;;;;;;11.38;6.15;;;7.50;99.90;;;;;;4994620;28;20713;-84
2022/11/02 07:31:51;;;;;;;6.68;4.20;;;7.70;99.90;;;;;;5004925;28;20042;-84
2022/11/02 07:34:17;;;;;;;8.40;6.07;;;7.80;99.90;;;;;;4980309;28;20041;-85
2022/11/02 07:36:50;;;;;;;8.07;3.80;;;7.80;99.90;;;;;;4991982;28;20097;-84
2022/11/02 07:39:17;;;;;;;5.38;3.53;;;7.90;99.90;;;;;;5007453;28;20073;-84
2022/11/02 07:41:55;;;;;;;5.00;3.43;;;8.00;99.90;;;;;;5001007;28;20038;-84
2022/11/02 07:44:34;;;;;;;4.88;3.53;;;8.00;99.90;;;;;;4986346;28;20575;-84
2022/11/02 07:47:00;;;;;;;5.82;4.03;;;8.10;99.90;;;;;;4957805;28;20103;-85
2022/11/02 07:49:26;;;;;;;8.68;3.95;;;8.20;99.90;;;;;;4989294;28;20519;-85
2022/11/02 07:51:55;;;;;;;5.15;3.50;;;8.30;99.90;;;;;;4993316;28;20030;-85
2022/11/02 07:54:21;;;;;;;7.85;4.50;;;8.40;99.90;;;;;;5004875;28;20053;-85
2022/11/02 07:56:46;;;;;;;4.20;3.40;;;8.40;99.90;;;;;;4995975;28;20102;-85
2022/11/02 07:59:15;;;;;;;5.22;3.30;;;8.50;99.90;;;;;;4997887;28;20033;-84
2022/11/02 08:01:41;;;;;;;4.95;3.17;;;8.50;99.90;;;;;;4992745;28;20069;-85
2022/11/02 08:04:07;;;;;;;6.35;3.05;;;8.50;99.90;;;;;;4995614;28;20030;-84
2022/11/02 08:06:50;;;;;;;3.85;3.08;;;8.60;99.90;;;;;;4953221;28;20027;-86
2022/11/02 08:09:26;;;;;;;;;;;;;;;;;;;;;
2022/11/02 08:11:55;;;;;;;5.25;3.10;;;8.70;99.90;;;;;;4990948;28;20056;-85
2022/11/02 08:14:53;;;;;;;4.75;3.33;;;8.80;99.90;;;;;;5001510;28;20101;-84
2022/11/02 08:17:21;;;;;;;4.20;2.90;;;8.90;99.90;;;;;;4993985;28;20058;-85
2022/11/02 08:19:58;;;;;;;5.47;3.13;;;9.00;99.90;;;;;;5003610;28;20030;-85
2022/11/02 08:22:24;;;;;;;4.75;3.08;;;9.10;99.90;;;;;;4993805;28;20061;-85
2022/11/02 08:24:50;;;;;;;6.47;3.40;;;9.20;99.90;;;;;;4997802;28;20042;-85
2022/11/02 08:27:19;;;;;;;4.72;4.10;;;9.30;99.90;;;;;;4990707;28;20691;-85
2022/11/02 08:29:45;;;;;;;7.13;4.03;;;9.40;99.90;;;;;;4976951;28;21238;-85
2022/11/02 08:32:12;;;;;;;4.90;3.65;;;9.50;99.90;;;;;;4997196;28;20117;-86
2022/11/02 08:34:37;;;;;;;7.28;3.85;;;9.60;99.90;;;;;;4993066;28;20482;-86
2022/11/02 08:37:12;;;;;;;7.38;4.10;;;9.80;99.90;;;;;;4992300;28;20065;-85
2022/11/02 08:39:38;;;;;;;7.32;4.47;;;9.90;99.90;;;;;;4995716;28;20084;-85
2022/11/02 08:42:04;;;;;;;6.53;4.75;;;10.10;99.90;;;;;;5004208;28;20038;-85
2022/11/02 08:44:29;;;;;;;5.28;3.65;;;10.20;99.90;;;;;;4995372;28;20088;-85
2022/11/02 08:46:56;;;;;;;6.03;4.15;;;10.30;99.90;;;;;;4996301;28;20050;-85
2022/11/02 08:49:30;;;;;;;6.47;4.45;;;10.40;99.90;;;;;;4998587;28;20034;-85
2022/11/02 08:51:59;;;;;;;7.97;4.32;;;10.60;99.90;;;;;;4988168;28;20042;-86
2022/11/02 08:54:25;;;;;;;6.10;4.10;;;10.80;99.90;;;;;;4975424;28;20083;-85
2022/11/02 08:56:50;;;;;;;6.63;3.40;;;10.80;99.90;;;;;;4968668;28;20296;-85
2022/11/02 08:59:16;;;;;;;6.85;3.13;;;10.90;99.90;;;;;;4977768;28;20039;-86
2022/11/02 09:01:45;;;;;;;7.22;2.92;;;11.00;99.90;;;;;;4973956;28;20039;-85
2022/11/02 09:04:36;;;;;;;3.17;2.05;;;11.20;99.90;;;;;;4968806;28;20030;-84
2022/11/02 09:07:01;;;;;;;3.95;2.70;;;11.50;99.90;;;;;;4969279;28;20089;-84
2022/11/02 09:09:27;;;;;;;8.48;2.13;;;11.60;99.90;;;;;;4973603;28;20584;-83
2022/11/02 09:12:05;;;;;;;5.50;2.72;;;11.80;99.90;;;;;;4970174;28;20352;-84
2022/11/02 09:14:31;;;;;;;3.95;2.50;;;11.80;99.90;;;;;;4972305;28;20187;-83
2022/11/02 09:16:56;;;;;;;3.38;1.33;;;11.80;99.90;;;;;;4977868;28;20046;-83
2022/11/02 09:19:29;;;;;;;3.72;1.60;;;12.00;99.90;;;;;;4966400;28;20470;-82
2022/11/02 09:21:56;;;;;;;3.25;2.20;;;11.90;99.90;;;;;;4975290;28;20362;-83
2022/11/02 09:24:24;;;;;;;2.90;1.55;;;12.00;99.90;;;;;;4988316;28;20035;-83
2022/11/02 09:26:51;;;;;;;6.88;2.15;;;11.90;99.90;;;;;;4978065;28;20042;-83
2022/11/02 09:29:24;;;;;;;4.45;1.98;;;12.10;99.90;;;;;;4984159;28;20113;-83
2022/11/02 09:31:49;;;;;;;1.77;1.45;;;12.10;99.90;;;;;;4987128;28;20048;-83
2022/11/02 09:34:15;;;;;;;6.63;2.25;;;12.20;99.90;;;;;;4982134;28;20043;-83
2022/11/02 09:36:44;;;;;;;4.72;2.15;;;12.20;99.90;;;;;;4971971;28;20026;-84
2022/11/02 09:39:10;;;;;;;3.60;1.60;;;12.30;99.90;;;;;;4971757;28;20043;-84
2022/11/02 09:41:44;;;;;;;4.30;1.85;;;12.30;99.90;;;;;;4981708;28;20030;-84
2022/11/02 09:44:48;;;;;;;7.18;2.40;;;12.40;99.90;;;;;;4985450;28;20035;-83
2022/11/02 09:47:16;;;;;;;4.28;1.73;;;12.40;99.90;;;;;;4969901;28;20034;-83
2022/11/02 09:49:48;;;;;;;8.10;2.13;;;12.50;99.90;;;;;;4972012;28;20488;-83
2022/11/02 09:52:55;;;;;;;4.57;1.75;;;12.50;99.90;;;;;;4970112;28;20042;-83
2022/11/02 09:55:28;;;;;;;3.13;1.83;;;12.50;99.90;;;;;;4987175;28;20045;-83
2022/11/02 09:58:04;;;;;;;3.08;1.83;;;12.60;99.90;;;;;;4991998;28;20571;-83
2022/11/02 10:00:36;;;;;;;2.67;1.15;;;12.70;99.90;;;;;;4987178;28;20022;-83
2022/11/02 10:03:40;;;;;;;2.63;1.33;;;12.80;99.90;;;;;;5000266;28;20039;-82
2022/11/02 10:06:17;;;;;;;11.30;1.80;;;12.80;99.90;;;;;;4994394;28;20461;-82
2022/11/02 10:08:55;;;;;;;5.57;1.40;;;12.80;99.90;;;;;;4998474;28;20019;-82
2022/11/02 10:11:59;;;;;;;5.82;1.73;;;12.80;99.90;;;;;;4991747;28;20092;-82
2022/11/02 10:14:43;;;;;;;2.13;1.05;;;12.90;99.90;;;;;;4987166;28;20129;-82
2022/11/02 10:17:47;;;;;;;1.58;0.75;;;12.80;99.90;;;;;;4985504;28;20042;-82
2022/11/02 10:20:46;;;;;;;3.38;1.70;;;12.90;99.90;;;;;;4957956;28;20102;-82
2022/11/02 10:23:30;;;;;;;4.93;2.05;;;12.80;99.90;;;;;;4978254;28;20126;-82
2022/11/02 10:26:06;;;;;;;3.15;1.52;;;12.90;99.90;;;;;;5000817;28;20394;-81
2022/11/02 10:29:19;;;;;;;5.03;1.65;;;12.90;99.90;;;;;;4978609;28;20035;-82
2022/11/02 10:31:48;;;;;;;3.08;1.30;;;12.90;99.90;;;;;;4927078;29;20055;-82
2022/11/02 10:34:26;;;;;;;2.63;1.60;;;12.90;99.90;;;;;;4977842;28;20072;-83
2022/11/02 10:37:19;;;;;;;1.95;1.20;;;12.90;99.90;;;;;;5000647;28;20062;-81
2022/11/02 10:39:54;;;;;;;5.85;1.30;;;12.90;99.90;;;;;;4998286;28;20026;-82
2022/11/02 10:42:53;;;;;;;4.65;1.40;;;12.80;99.90;;;;;;4996021;28;20060;-82
2022/11/02 10:45:58;;;;;;;4.75;1.30;;;12.80;99.90;;;;;;4980095;28;20122;-82
2022/11/02 10:48:47;;;;;;;7.15;1.95;;;12.90;99.90;;;;;;4958288;28;20037;-82
2022/11/02 10:51:16;;;;;;;2.47;1.45;;;12.90;99.90;;;;;;4999400;28;20031;-82
2022/11/02 10:53:45;;;;;;;2.58;1.17;;;12.90;99.90;;;;;;4997577;28;20088;-81
2022/11/02 10:56:29;;;;;;;5.38;1.48;;;12.90;99.90;;;;;;5006367;28;20030;-82
2022/11/02 10:59:09;;;;;;;2.80;1.13;;;12.90;99.90;;;;;;5003638;28;20133;-82
2022/11/02 11:01:34;;;;;;;5.50;1.20;;;12.90;99.90;;;;;;5000079;28;20069;-81
2022/11/02 11:04:05;;;;;;;3.60;1.30;;;12.90;99.90;;;;;;5002610;28;20046;-81
2022/11/02 11:06:42;;;;;;;2.05;0.93;;;12.90;99.90;;;;;;4989232;28;20035;-82
2022/11/02 11:09:20;;;;;;;5.03;1.33;;;13.00;99.90;;;;;;4988363;28;20041;-83
2022/11/02 11:11:53;;;;;;;2.23;1.40;;;12.90;99.90;;;;;;5002662;28;20022;-84
2022/11/02 11:14:22;;;;;;;3.38;0.98;;;13.00;99.90;;;;;;4995256;28;20041;-84
2022/11/02 11:16:58;;;;;;;;;;;13.10;99.90;;;;;;5004824;28;20010;-83
2022/11/02 11:19:33;;;;;;;2.88;1.10;;;13.10;99.90;;;;;;4992382;28;19981;-83
2022/11/02 11:21:59;;;;;;;1.77;0.90;;;13.20;99.90;;;;;;4997016;28;20044;-83
2022/11/02 11:24:31;;;;;;;2.25;1.08;;;13.30;99.90;;;;;;4996490;28;20037;-84
2022/11/02 11:27:12;;;;;;;2.00;1.20;;;13.30;99.90;;;;;;4998212;28;20033;-83
2022/11/02 11:29:43;;;;;;;3.35;1.20;;;13.20;99.90;;;;;;4987651;28;20057;-82
2022/11/02 11:32:27;;;;;;;4.75;1.27;;;13.20;99.90;;;;;;4993227;28;20105;-84
2022/11/02 11:35:03;;;;;;;2.80;0.85;;;13.20;99.90;;;;;;5000160;28;20034;-85
2022/11/02 11:37:30;;;;;;;1.05;0.90;;;13.20;99.90;;;;;;4996410;28;20565;-83
2022/11/02 11:39:58;;;;;;;1.63;1.20;;;13.30;99.90;;;;;;4992652;28;20090;-82
2022/11/02 11:42:28;;;;;;;3.97;1.13;;;13.40;99.90;;;;;;4980541;28;20049;-84
2022/11/02 11:45:07;;;;;;;0.60;0.60;;;13.30;99.90;;;;;;4999867;28;20031;-83
2022/11/02 11:47:36;;;;;;;2.08;1.00;;;13.40;99.90;;;;;;4975681;28;20046;-84
2022/11/02 11:50:05;;;;;;;1.58;1.17;;;13.40;99.90;;;;;;4982124;28;20034;-81
2022/11/02 11:52:32;;;;;;;2.67;0.90;;;13.40;99.90;;;;;;4993105;28;20133;-84
2022/11/02 11:55:21;;;;;;;1.02;0.90;;;13.40;99.90;;;;;;4994511;28;20938;-82
2022/11/02 11:58:12;;;;;;;1.58;0.98;;;13.50;99.90;;;;;;4993885;28;20138;-84
2022/11/02 12:00:37;;;;;;;3.53;1.10;;;13.50;99.90;;;;;;4982310;28;20303;-84
2022/11/02 12:03:10;;;;;;;2.38;1.00;;;13.50;99.90;;;;;;5003491;28;20667;-84
2022/11/02 12:06:04;;;;;;;3.13;0.80;;;13.50;99.90;;;;;;4997988;28;20068;-84
2022/11/02 12:08:42;;;;;;;3.03;0.73;;;13.50;99.90;;;;;;5001006;28;20069;-82
2022/11/02 12:11:44;;;;;;;2.92;0.80;;;13.50;99.90;;;;;;5006158;28;20089;-84
2022/11/02 12:14:36;;;;;;;1.90;0.80;;;13.50;99.90;;;;;;4956629;28;20039;-84
2022/11/02 12:18:05;;;;;;;3.08;0.80;;;13.60;99.90;;;;;;4999194;28;20026;-82
2022/11/02 12:20:17;;;;;;;1.42;1.00;;;13.60;99.90;;;;;;5001822;28;20035;-83
2022/11/02 12:23:05;;;;;;;3.78;1.00;;;13.60;99.90;;;;;;4997724;28;20018;-84
2022/11/02 12:25:57;;;;;;;3.15;1.40;;;13.60;99.90;;;;;;5002003;28;20034;-83
2022/11/02 12:28:49;;;;;;;3.72;0.93;;;13.60;99.90;;;;;;5005398;28;20029;-82
2022/11/02 12:31:23;;;;;;;1.30;0.80;;;13.60;99.90;;;;;;4958990;28;20042;-83
2022/11/02 12:33:54;;;;;;;3.33;0.90;;;13.60;99.90;;;;;;5002260;28;20030;-83
2022/11/02 12:36:29;;;;;;;1.80;0.63;;;13.60;99.90;;;;;;5002506;28;20080;-81
2022/11/02 12:39:07;;;;;;;4.57;1.00;;;13.60;99.90;;;;;;4979540;28;20375;-83
2022/11/02 12:41:51;;;;;;;2.38;1.10;;;13.60;99.90;;;;;;4998226;28;20037;-84
2022/11/02 12:44:32;;;;;;;2.05;0.70;;;13.70;99.90;;;;;;4974081;28;20042;-82
2022/11/02 12:47:11;;;;;;;0.50;0.50;;;13.70;99.90;;;;;;5012142;28;20030;-83
2022/11/02 12:49:47;;;;;;;2.40;0.75;;;13.60;99.90;;;;;;4992659;28;20037;-81
2022/11/02 12:52:27;;;;;;;3.22;1.25;;;13.60;99.90;;;;;;4998806;28;20046;-82
2022/11/02 12:54:59;;;;;;;1.23;1.00;;;13.60;99.90;;;;;;4984869;28;20030;-84
2022/11/02 12:57:30;;;;;;;2.33;1.00;;;13.70;99.90;;;;;;4988483;28;20057;-83
2022/11/02 13:00:04;;;;;;;1.10;0.68;;;13.70;99.90;;;;;;4997592;28;20098;-83
2022/11/02 13:02:55;;;;;;;1.55;0.90;;;13.70;99.90;;;;;;5010751;28;20057;-81
2022/11/02 13:05:25;;;;;;;2.20;0.90;;;13.70;99.90;;;;;;5004020;28;20057;-83
2022/11/02 13:08:16;;;;;;;1.42;0.77;;;13.80;99.90;;;;;;5008858;28;20057;-84
2022/11/02 13:10:45;;;;;;;1.40;0.80;;;13.70;99.90;;;;;;5002657;28;20054;-83
2022/11/02 13:13:23;;;;;;;0.90;0.90;;;13.70;99.90;;;;;;4998383;28;20026;-82
2022/11/02 13:15:50;;;;;;;0.60;0.60;;;13.70;99.90;;;;;;5002388;28;20037;-83
2022/11/02 13:18:47;;;;;;;1.70;0.82;;;13.80;99.90;;;;;;4989986;28;20492;-83
2022/11/02 13:21:15;;;;;;;4.15;1.02;;;13.80;99.90;;;;;;4988607;28;20037;-83
2022/11/02 13:23:56;;;;;;;2.75;0.95;;;13.90;99.90;;;;;;4987196;28;20684;-83
2022/11/02 13:26:41;;;;;;;2.95;1.35;;;14.00;99.90;;;;;;4994347;28;20031;-82
2022/11/02 13:29:43;;;;;;;2.08;1.13;;;14.10;99.90;;;;;;4997509;28;20153;-82
2022/11/02 13:32:29;;;;;;;1.50;0.70;;;14.10;99.90;;;;;;4990935;28;20054;-84
2022/11/02 13:34:55;;;;;;;3.13;0.90;;;14.00;99.90;;;;;;4991308;28;20038;-82
2022/11/02 13:37:33;;;;;;;4.82;1.20;;;14.00;99.90;;;;;;4991874;28;20060;-83
2022/11/02 13:40:06;;;;;;;1.85;0.75;;;14.00;99.90;;;;;;4995827;28;20093;-83
2022/11/02 13:42:58;;;;;;;2.58;1.00;;;14.10;99.90;;;;;;4974431;28;20034;-83
2022/11/02 13:45:52;;;;;;;3.13;0.98;;;14.10;99.90;;;;;;4990985;28;20610;-84
2022/11/02 13:48:51;;;;;;;2.53;1.20;;;14.10;99.90;;;;;;4985854;28;20056;-83
2022/11/02 13:51:28;;;;;;;1.77;1.00;;;14.10;99.90;;;;;;4989957;28;20064;-82
2022/11/02 13:54:02;;;;;;;0.50;0.50;;;14.20;99.90;;;;;;4996190;28;20086;-82
2022/11/02 13:56:32;;;;;;;3.05;1.17;;;14.20;99.90;;;;;;4988668;28;20891;-82
2022/11/02 13:59:02;;;;;;;2.47;1.25;;;14.10;99.90;;;;;;4979148;28;20042;-83
2022/11/02 14:01:35;;;;;;;2.88;1.60;;;14.10;99.90;;;;;;4992012;28;20204;-83
2022/11/02 14:04:02;;;;;;;2.72;1.20;;;14.20;99.90;;;;;;4992812;28;20053;-84
2022/11/02 14:06:30;;;;;;;4.67;1.40;;;14.20;99.90;;;;;;4990817;28;20659;-82